createdAt,value
2022-12-25T00:00:07.378Z,96609.03
2022-12-25T00:02:37.473Z,96617.13
2022-12-25T00:05:06.425Z,96616.97
2022-12-25T00:07:34.967Z,96612.81
2022-12-25T00:10:03.317Z,96615.44
2022-12-25T00:12:31.688Z,96613.66
2022-12-25T00:15:00.053Z,96616.13
2022-12-25T00:17:28.391Z,96612.50
2022-12-25T00:19:58.125Z,96613.31
2022-12-25T00:22:26.641Z,96610.53
2022-12-25T00:24:55.005Z,96614.00
2022-12-25T00:27:23.362Z,96615.53
2022-12-25T00:29:51.723Z,96613.72
2022-12-25T00:32:20.294Z,96605.78
2022-12-25T00:34:48.999Z,96609.09
2022-12-25T00:37:18.764Z,96597.56
2022-12-25T00:39:49.316Z,96598.25
2022-12-25T00:42:20.568Z,96592.09
2022-12-25T00:44:49.958Z,96590.47
2022-12-25T00:47:18.872Z,96595.06
2022-12-25T00:49:47.276Z,96591.91
2022-12-25T00:52:15.676Z,96584.28
2022-12-25T00:54:45.372Z,96580.00
2022-12-25T00:57:13.727Z,96583.75
2022-12-25T00:59:42.061Z,96587.41
2022-12-25T01:02:25.604Z,96583.28
2022-12-25T01:04:55.714Z,96580.78
2022-12-25T01:07:25.598Z,96588.84
2022-12-25T01:10:12.831Z,96598.56
2022-12-25T01:12:43.597Z,96593.75
2022-12-25T01:15:13.192Z,96604.63
2022-12-25T01:17:42.551Z,96607.41
2022-12-25T01:20:12.713Z,96603.28
2022-12-25T01:22:41.126Z,96606.34
2022-12-25T01:25:12.023Z,96602.88
2022-12-25T01:27:42.138Z,96591.66
2022-12-25T01:30:11.864Z,96590.97
2022-12-25T01:32:40.153Z,96597.06
2022-12-25T01:35:09.135Z,96601.53
2022-12-25T01:37:37.510Z,96605.00
2022-12-25T01:40:07.840Z,96596.25
2022-12-25T01:42:37.617Z,96589.16
2022-12-25T01:45:37.446Z,96582.06
2022-12-25T01:48:13.203Z,96573.19
2022-12-25T01:50:47.040Z,96566.22
2022-12-25T01:53:15.495Z,96555.00
2022-12-25T01:55:48.036Z,96540.31
2022-12-25T01:58:19.146Z,96552.00
2022-12-25T02:00:47.588Z,96544.09
2022-12-25T02:03:15.978Z,96552.00
2022-12-25T02:05:45.629Z,96537.31
2022-12-25T02:08:17.552Z,96539.25
2022-12-25T02:10:46.168Z,96534.84
2022-12-25T02:13:19.473Z,96539.59
2022-12-25T02:16:00.545Z,96537.91
2022-12-25T02:18:41.595Z,96526.53
2022-12-25T02:21:35.121Z,96521.25
2022-12-25T02:24:28.368Z,96515.00
2022-12-25T02:27:11.982Z,96516.66
2022-12-25T02:29:54.332Z,96525.53
2022-12-25T02:32:29.411Z,96535.28
2022-12-25T02:35:02.390Z,96525.03
2022-12-25T02:37:36.984Z,96531.44
2022-12-25T02:40:10.291Z,96529.78
2022-12-25T02:43:05.659Z,96523.16
2022-12-25T02:45:57.167Z,96527.78
2022-12-25T02:48:46.844Z,96506.97
2022-12-25T02:51:34.751Z,96505.16
2022-12-25T02:54:26.427Z,96497.22
2022-12-25T02:57:15.451Z,96489.31
2022-12-25T03:00:05.984Z,96490.31
2022-12-25T03:02:53.828Z,96491.97
2022-12-25T03:05:42.876Z,96501.69
2022-12-25T03:08:15.740Z,96489.19
2022-12-25T03:11:14.267Z,96491.66
2022-12-25T03:13:47.573Z,96485.56
2022-12-25T03:16:32.662Z,96490.84
2022-12-25T03:19:22.892Z,96491.66
2022-12-25T03:22:09.080Z,96503.03
2022-12-25T03:24:54.952Z,96496.63
2022-12-25T03:27:23.728Z,96495.50
2022-12-25T03:30:09.709Z,96499.50
2022-12-25T03:32:41.974Z,96501.81
2022-12-25T03:35:25.759Z,96503.19
2022-12-25T03:38:31.557Z,96503.84
2022-12-25T03:41:27.992Z,96501.03
2022-12-25T03:44:30.584Z,96500.88
2022-12-25T03:47:38.960Z,96504.06
2022-12-25T03:50:33.903Z,96509.84
2022-12-25T03:53:24.936Z,96502.63
2022-12-25T03:56:11.823Z,96504.44
2022-12-25T03:59:09.255Z,96508.84
2022-12-25T04:01:55.322Z,96513.16
2022-12-25T04:04:41.320Z,96516.63
2022-12-25T04:07:28.561Z,96511.34
2022-12-25T04:10:13.938Z,96516.47
2022-12-25T04:13:00.162Z,96514.34
2022-12-25T04:15:46.223Z,96523.78
2022-12-25T04:18:32.092Z,96520.97
2022-12-25T04:21:32.290Z,96525.44
2022-12-25T04:24:19.806Z,96527.09
2022-12-25T04:27:05.377Z,96528.75
2022-12-25T04:29:51.358Z,96527.75
2022-12-25T04:32:48.761Z,96527.59
2022-12-25T04:35:37.096Z,96516.22
2022-12-25T04:38:05.580Z,96522.66
2022-12-25T04:40:36.379Z,96507.78
2022-12-25T04:43:04.828Z,96509.59
2022-12-25T04:45:33.242Z,96515.56
2022-12-25T04:48:01.697Z,96519.84
2022-12-25T04:50:30.030Z,96522.47
2022-12-25T04:52:58.570Z,96518.19
2022-12-25T04:55:26.959Z,96524.44
2022-12-25T04:57:56.664Z,96515.84
2022-12-25T05:00:25.071Z,96509.91
2022-12-25T05:02:53.524Z,96504.28
2022-12-25T05:05:21.983Z,96503.56
2022-12-25T05:07:50.322Z,96510.81
2022-12-25T05:10:18.654Z,96519.59
2022-12-25T05:12:47.046Z,96510.16
2022-12-25T05:15:16.810Z,96501.56
2022-12-25T05:17:45.119Z,96506.16
2022-12-25T05:20:13.672Z,96503.53
2022-12-25T05:22:43.068Z,96491.34
2022-12-25T05:25:11.434Z,96481.06
2022-12-25T05:27:39.967Z,96486.50
2022-12-25T05:30:09.785Z,96491.94
2022-12-25T05:32:39.474Z,96491.56
2022-12-25T05:35:08.935Z,96496.03
2022-12-25T05:37:38.554Z,96502.41
2022-12-25T05:40:08.211Z,96501.75
2022-12-25T05:42:36.577Z,96500.25
2022-12-25T05:45:05.431Z,96500.41
2022-12-25T05:47:33.775Z,96502.22
2022-12-25T05:50:03.477Z,96506.97
2022-12-25T05:52:33.190Z,96500.19
2022-12-25T05:55:02.179Z,96507.25
2022-12-25T05:57:30.825Z,96501.97
2022-12-25T05:59:59.212Z,96489.78
2022-12-25T06:02:27.822Z,96489.78
2022-12-25T06:04:56.322Z,96490.09
2022-12-25T06:07:26.173Z,96489.13
2022-12-25T06:09:54.618Z,96488.44
2022-12-25T06:12:23.018Z,96485.94
2022-12-25T06:14:51.346Z,96485.13
2022-12-25T06:17:19.666Z,96483.47
2022-12-25T06:19:47.991Z,96480.81
2022-12-25T06:22:16.306Z,96486.25
2022-12-25T06:24:46.230Z,96489.06
2022-12-25T06:27:14.643Z,96488.19
2022-12-25T06:29:42.969Z,96475.19
2022-12-25T06:32:11.265Z,96484.84
2022-12-25T06:34:39.613Z,96489.31
2022-12-25T06:37:07.955Z,96495.72
2022-12-25T06:39:36.446Z,96489.47
2022-12-25T06:42:06.260Z,96488.63
2022-12-25T06:44:34.705Z,96489.47
2022-12-25T06:47:03.017Z,96486.69
2022-12-25T06:49:31.383Z,96491.00
2022-12-25T06:51:59.749Z,96494.47
2022-12-25T06:54:29.182Z,96489.06
2022-12-25T06:56:57.518Z,96477.50
2022-12-25T06:59:27.228Z,96484.28
2022-12-25T07:01:57.349Z,96484.13
2022-12-25T07:04:32.085Z,96492.03
2022-12-25T07:07:07.965Z,96490.09
2022-12-25T07:09:39.050Z,96499.00
2022-12-25T07:12:15.147Z,96498.00
2022-12-25T07:14:48.647Z,96491.75
2022-12-25T07:17:17.609Z,96500.19
2022-12-25T07:19:47.468Z,96496.41
2022-12-25T07:22:16.020Z,96506.97
2022-12-25T07:24:44.374Z,96496.41
2022-12-25T07:27:12.875Z,96510.56
2022-12-25T07:29:41.250Z,96493.91
2022-12-25T07:32:11.026Z,96501.97
2022-12-25T07:34:39.369Z,96493.25
2022-12-25T07:37:07.722Z,96500.19
2022-12-25T07:39:36.052Z,96499.19
2022-12-25T07:42:04.616Z,96496.41
2022-12-25T07:44:32.917Z,96502.38
2022-12-25T07:47:01.306Z,96498.59
2022-12-25T07:49:31.044Z,96505.53
2022-12-25T07:51:59.405Z,96501.59
2022-12-25T07:54:27.765Z,96504.09
2022-12-25T07:56:56.756Z,96498.81
2022-12-25T07:59:25.142Z,96510.84
2022-12-25T08:01:53.771Z,96505.72
2022-12-25T08:04:22.349Z,96505.72
2022-12-25T08:06:52.025Z,96501.31
2022-12-25T08:09:20.324Z,96507.94
2022-12-25T08:11:49.268Z,96499.53
2022-12-25T08:14:17.613Z,96499.91
2022-12-25T08:16:47.094Z,96493.34
2022-12-25T08:19:15.575Z,96490.38
2022-12-25T08:21:43.968Z,96501.78
2022-12-25T08:24:13.717Z,96493.53
2022-12-25T08:26:42.184Z,96503.66
2022-12-25T08:29:10.528Z,96503.69
2022-12-25T08:31:45.747Z,96499.13
2022-12-25T08:34:15.127Z,96500.19
2022-12-25T08:36:43.581Z,96508.47
2022-12-25T08:39:13.417Z,96504.19
2022-12-25T08:41:41.841Z,96509.16
2022-12-25T08:44:13.385Z,96501.09
2022-12-25T08:46:41.826Z,96499.94
2022-12-25T08:49:10.250Z,96490.72
2022-12-25T08:51:39.090Z,96491.91
2022-12-25T08:54:07.429Z,96486.47
2022-12-25T08:56:37.624Z,96480.38
2022-12-25T08:59:06.099Z,96481.19
2022-12-25T09:01:34.657Z,96488.59
2022-12-25T09:04:03.080Z,96481.97
2022-12-25T09:06:31.688Z,96490.34
2022-12-25T09:09:00.017Z,96479.78
2022-12-25T09:11:28.585Z,96479.63
2022-12-25T09:13:58.365Z,96473.91
2022-12-25T09:16:26.809Z,96474.38
2022-12-25T09:18:58.096Z,96474.22
2022-12-25T09:21:27.455Z,96476.22
2022-12-25T09:23:55.960Z,96474.22
2022-12-25T09:26:24.305Z,96469.56
2022-12-25T09:28:52.938Z,96467.38
2022-12-25T09:31:23.582Z,96463.25
2022-12-25T09:33:52.668Z,96461.91
2022-12-25T09:36:23.451Z,96465.19
2022-12-25T09:38:52.734Z,96454.41
2022-12-25T09:41:28.385Z,96455.56
2022-12-25T09:44:00.894Z,96455.41
2022-12-25T09:46:42.880Z,96446.34
2022-12-25T09:49:20.094Z,96449.00
2022-12-25T09:51:53.854Z,96452.69
2022-12-25T09:54:26.095Z,96443.31
2022-12-25T09:56:54.457Z,96440.19
2022-12-25T09:59:26.273Z,96430.13
2022-12-25T10:02:11.496Z,96438.91
2022-12-25T10:05:01.594Z,96423.88
2022-12-25T10:07:41.832Z,96423.72
2022-12-25T10:10:28.450Z,96417.13
2022-12-25T10:13:07.368Z,96418.97
2022-12-25T10:15:45.865Z,96409.22
2022-12-25T10:18:44.695Z,96407.28
2022-12-25T10:21:15.627Z,96411.41
2022-12-25T10:23:47.868Z,96411.44
2022-12-25T10:26:18.472Z,96418.53
2022-12-25T10:28:49.029Z,96402.22
2022-12-25T10:31:22.215Z,96394.78
2022-12-25T10:33:53.769Z,96397.41
2022-12-25T10:36:25.449Z,96415.75
2022-12-25T10:38:54.690Z,96402.19
2022-12-25T10:41:36.234Z,96403.69
2022-12-25T10:44:15.030Z,96402.06
2022-12-25T10:46:49.002Z,96395.59
2022-12-25T10:49:21.847Z,96406.38
2022-12-25T10:51:50.937Z,96408.19
2022-12-25T10:54:22.741Z,96396.09
2022-12-25T10:56:56.174Z,96401.69
2022-12-25T10:59:25.084Z,96396.72
2022-12-25T11:01:55.491Z,96376.88
2022-12-25T11:04:28.740Z,96367.44
2022-12-25T11:06:59.587Z,96365.13
2022-12-25T11:09:28.763Z,96369.25
2022-12-25T11:11:57.727Z,96369.88
2022-12-25T11:14:28.121Z,96380.16
2022-12-25T11:16:56.500Z,96370.88
2022-12-25T11:19:29.240Z,96360.13
2022-12-25T11:21:59.533Z,96342.03
2022-12-25T11:24:29.622Z,96349.66
2022-12-25T11:27:00.320Z,96350.13
2022-12-25T11:29:37.424Z,96337.38
2022-12-25T11:32:15.210Z,96340.53
2022-12-25T11:34:47.381Z,96345.28
2022-12-25T11:37:21.390Z,96328.88
2022-12-25T11:39:49.801Z,96330.38
2022-12-25T11:42:23.766Z,96326.69
2022-12-25T11:45:03.418Z,96321.41
2022-12-25T11:47:38.687Z,96323.25
2022-12-25T11:50:20.335Z,96323.13
2022-12-25T11:52:50.270Z,96326.91
2022-12-25T11:55:23.084Z,96317.66
2022-12-25T11:57:56.200Z,96324.31
2022-12-25T12:00:24.948Z,96318.19
2022-12-25T12:03:02.369Z,96318.19
2022-12-25T12:05:38.584Z,96324.47
2022-12-25T12:08:07.903Z,96314.06
2022-12-25T12:10:58.673Z,96315.22
2022-12-25T12:13:38.986Z,96309.94
2022-12-25T12:16:09.066Z,96307.94
2022-12-25T12:18:37.923Z,96305.28
2022-12-25T12:21:12.364Z,96302.66
2022-12-25T12:23:52.230Z,96293.53
2022-12-25T12:26:21.841Z,96295.34
2022-12-25T12:28:52.337Z,96278.66
2022-12-25T12:31:20.804Z,96277.13
2022-12-25T12:33:54.554Z,96281.41
2022-12-25T12:36:35.472Z,96270.91
2022-12-25T12:39:06.256Z,96275.16
2022-12-25T12:41:47.080Z,96277.19
2022-12-25T12:44:18.405Z,96273.47
2022-12-25T12:46:54.615Z,96270.34
2022-12-25T12:49:25.113Z,96265.25
2022-12-25T12:52:07.158Z,96266.13
2022-12-25T12:54:53.824Z,96261.84
2022-12-25T12:57:29.267Z,96261.50
2022-12-25T13:00:04.770Z,96259.38
2022-12-25T13:03:15.569Z,96246.38
2022-12-25T13:05:48.421Z,96248.50
2022-12-25T13:08:33.255Z,96241.34
2022-12-25T13:11:08.860Z,96238.97
2022-12-25T13:13:41.537Z,96248.69
2022-12-25T13:16:21.002Z,96253.88
2022-12-25T13:18:51.093Z,96253.88
2022-12-25T13:21:23.821Z,96257.06
2022-12-25T13:23:59.705Z,96260.94
2022-12-25T13:26:29.027Z,96262.56
2022-12-25T13:28:57.563Z,96252.28
2022-12-25T13:31:30.816Z,96242.69
2022-12-25T13:34:03.694Z,96243.63
2022-12-25T13:36:37.166Z,96246.16
2022-12-25T13:39:15.026Z,96248.81
2022-12-25T13:42:03.006Z,96248.28
2022-12-25T13:44:41.191Z,96259.97
2022-12-25T13:47:16.924Z,96247.34
2022-12-25T13:49:46.245Z,96248.63
2022-12-25T13:52:17.220Z,96240.91
2022-12-25T13:54:57.888Z,96227.91
2022-12-25T13:57:30.327Z,96221.84
2022-12-25T13:59:59.155Z,96227.59
2022-12-25T14:02:32.860Z,96215.22
2022-12-25T14:05:01.324Z,96228.59
2022-12-25T14:07:29.669Z,96223.19
2022-12-25T14:10:03.246Z,96222.75
2022-12-25T14:12:32.954Z,96227.66
2022-12-25T14:15:01.881Z,96227.66
2022-12-25T14:17:30.442Z,96215.06
2022-12-25T14:20:07.800Z,96210.69
2022-12-25T14:22:38.539Z,96208.16
2022-12-25T14:25:17.275Z,96216.91
2022-12-25T14:27:50.548Z,96230.38
2022-12-25T14:30:19.518Z,96218.91
2022-12-25T14:32:51.878Z,96237.38
2022-12-25T14:35:23.476Z,96225.56
2022-12-25T14:37:57.521Z,96224.53
2022-12-25T14:40:30.375Z,96225.94
2022-12-25T14:43:00.540Z,96228.00
2022-12-25T14:45:32.916Z,96227.56
2022-12-25T14:48:24.487Z,96226.00
2022-12-25T14:51:00.123Z,96236.13
2022-12-25T14:53:36.129Z,96239.38
2022-12-25T14:56:10.230Z,96243.22
2022-12-25T14:58:42.830Z,96234.50
2022-12-25T15:01:22.411Z,96246.75
2022-12-25T15:03:50.916Z,96239.69
2022-12-25T15:06:21.791Z,96247.47
2022-12-25T15:09:00.846Z,96254.44
2022-12-25T15:11:31.077Z,96240.88
2022-12-25T15:13:59.762Z,96245.88
2022-12-25T15:16:32.212Z,96242.06
2022-12-25T15:19:02.538Z,96252.66
2022-12-25T15:21:34.175Z,96255.94
2022-12-25T15:24:02.759Z,96256.47
2022-12-25T15:26:33.362Z,96255.00
2022-12-25T15:29:01.734Z,96253.34
2022-12-25T15:31:32.090Z,96253.50
2022-12-25T15:34:02.413Z,96261.63
2022-12-25T15:36:31.098Z,96264.41
2022-12-25T15:38:59.618Z,96256.66
2022-12-25T15:41:48.540Z,96256.00
2022-12-25T15:44:21.793Z,96235.16
2022-12-25T15:46:51.189Z,96233.84
2022-12-25T15:49:19.787Z,96229.75
2022-12-25T15:51:48.176Z,96234.53
2022-12-25T15:54:16.567Z,96234.84
2022-12-25T15:56:48.202Z,96229.91
2022-12-25T15:59:19.620Z,96232.88
2022-12-25T16:01:51.311Z,96229.41
2022-12-25T16:04:20.592Z,96226.13
2022-12-25T16:06:49.205Z,96237.84
2022-12-25T16:09:19.980Z,96232.72
2022-12-25T16:11:48.654Z,96224.13
2022-12-25T16:14:19.484Z,96235.19
2022-12-25T16:16:47.864Z,96220.50
2022-12-25T16:19:16.243Z,96254.03
2022-12-25T16:21:46.595Z,96238.34
2022-12-25T16:24:15.216Z,96247.22
2022-12-25T16:26:44.935Z,96252.72
2022-12-25T16:29:13.703Z,96243.94
2022-12-25T16:31:43.667Z,96255.50
2022-12-25T16:34:12.000Z,96253.84
2022-12-25T16:36:40.356Z,96258.31
2022-12-25T16:39:08.813Z,96253.19
2022-12-25T16:41:37.447Z,96249.88
2022-12-25T16:44:09.396Z,96251.69
2022-12-25T16:46:38.984Z,96252.88
2022-12-25T16:49:08.721Z,96250.38
2022-12-25T16:51:37.141Z,96252.34
2022-12-25T16:54:05.784Z,96252.50
2022-12-25T16:56:36.496Z,96258.97
2022-12-25T16:59:05.017Z,96268.00
2022-12-25T17:01:33.475Z,96255.81
2022-12-25T17:04:02.596Z,96259.44
2022-12-25T17:06:32.379Z,96251.34
2022-12-25T17:09:02.581Z,96255.66
2022-12-25T17:11:31.722Z,96251.34
2022-12-25T17:14:03.376Z,96253.00
2022-12-25T17:16:33.927Z,96244.75
2022-12-25T17:19:04.531Z,96241.78
2022-12-25T17:21:34.928Z,96234.84
2022-12-25T17:24:04.460Z,96240.13
2022-12-25T17:26:32.855Z,96238.50
2022-12-25T17:29:02.062Z,96227.09
2022-12-25T17:31:30.861Z,96234.19
2022-12-25T17:34:02.467Z,96237.00
2022-12-25T17:36:31.257Z,96238.16
2022-12-25T17:39:01.962Z,96248.06
2022-12-25T17:41:30.519Z,96251.69
2022-12-25T17:43:58.917Z,96247.38
2022-12-25T17:46:29.461Z,96254.66
2022-12-25T17:49:01.896Z,96254.97
2022-12-25T17:51:32.232Z,96253.16
2022-12-25T17:54:04.006Z,96263.72
2022-12-25T17:56:32.936Z,96302.47
2022-12-25T17:59:06.708Z,96265.53
2022-12-25T18:01:37.646Z,96277.25
2022-12-25T18:04:07.416Z,96262.22
2022-12-25T18:06:37.297Z,96275.41
2022-12-25T18:09:07.951Z,96273.63
2022-12-25T18:11:39.595Z,96295.56
2022-12-25T18:14:10.217Z,96300.84
2022-12-25T18:16:42.033Z,96289.28
2022-12-25T18:19:10.938Z,96290.28
2022-12-25T18:21:39.330Z,96287.78
2022-12-25T18:24:10.291Z,96287.13
2022-12-25T18:26:38.638Z,96299.50
2022-12-25T18:29:07.642Z,96288.09
2022-12-25T18:31:36.981Z,96295.56
2022-12-25T18:34:05.447Z,96286.28
2022-12-25T18:36:33.929Z,96288.44
2022-12-25T18:39:02.303Z,96293.88
2022-12-25T18:41:51.994Z,96297.81
2022-12-25T18:44:20.359Z,96309.34
2022-12-25T18:46:48.696Z,96297.97
2022-12-25T18:49:17.030Z,96298.78
2022-12-25T18:51:45.407Z,96303.09
2022-12-25T18:54:13.742Z,96302.25
2022-12-25T18:56:43.490Z,96289.22
2022-12-25T18:59:11.871Z,96300.59
2022-12-25T19:01:40.365Z,96302.44
2022-12-25T19:04:12.554Z,96292.84
2022-12-25T19:06:41.117Z,96292.69
2022-12-25T19:09:10.003Z,96298.78
2022-12-25T19:11:46.003Z,96304.06
2022-12-25T19:14:17.956Z,96312.97
2022-12-25T19:16:46.325Z,96321.88
2022-12-25T19:19:15.467Z,96307.84
2022-12-25T19:21:43.903Z,96303.56
2022-12-25T19:24:12.300Z,96304.41
2022-12-25T19:26:40.702Z,96306.03
2022-12-25T19:29:09.111Z,96308.53
2022-12-25T19:31:39.408Z,96318.06
2022-12-25T19:34:07.843Z,96311.97
2022-12-25T19:36:36.793Z,96308.69
2022-12-25T19:39:06.264Z,96312.31
2022-12-25T19:41:34.808Z,96308.16
2022-12-25T19:44:03.749Z,96307.50
2022-12-25T19:46:34.341Z,96313.59
2022-12-25T19:49:05.035Z,96316.06
2022-12-25T19:51:36.382Z,96309.97
2022-12-25T19:54:05.648Z,96333.72
2022-12-25T19:56:34.854Z,96336.38
2022-12-25T19:59:03.386Z,96334.56
2022-12-25T20:01:33.092Z,96336.53
2022-12-25T20:04:01.758Z,96353.50
2022-12-25T20:06:33.305Z,96367.00
2022-12-25T20:09:03.941Z,96354.81
2022-12-25T20:11:34.071Z,96352.16
2022-12-25T20:14:02.815Z,96364.06
2022-12-25T20:16:31.246Z,96369.19
2022-12-25T20:19:00.289Z,96360.59
2022-12-25T20:21:29.876Z,96358.13
2022-12-25T20:24:00.379Z,96353.00
2022-12-25T20:26:30.808Z,96360.91
2022-12-25T20:28:59.645Z,96354.13
2022-12-25T20:31:29.603Z,96358.41
2022-12-25T20:37:05.128Z,96364.50
2022-12-25T20:39:34.852Z,96375.59
2022-12-25T20:42:03.181Z,96377.09
2022-12-25T20:44:31.615Z,96376.63
2022-12-25T20:47:01.082Z,96379.91
2022-12-25T20:49:32.438Z,96382.56
2022-12-25T20:52:05.276Z,96381.75
2022-12-25T20:54:35.840Z,96382.91
2022-12-25T20:57:04.403Z,96392.44
2022-12-25T20:59:37.441Z,96377.44
2022-12-25T21:02:06.466Z,96369.53
2022-12-25T21:04:34.938Z,96375.66
2022-12-25T21:07:03.668Z,96366.56
2022-12-25T21:09:32.061Z,96363.78
2022-12-25T21:12:01.800Z,96351.56
2022-12-25T21:14:30.449Z,96365.75
2022-12-25T21:16:58.830Z,96350.22
2022-12-25T21:19:27.297Z,96353.69
2022-12-25T21:21:55.616Z,96353.88
2022-12-25T21:24:23.986Z,96345.25
2022-12-25T21:26:52.347Z,96335.84
2022-12-25T21:29:24.359Z,96343.91
2022-12-25T21:32:11.634Z,96342.28
2022-12-25T21:34:40.220Z,96356.44
2022-12-25T21:37:08.542Z,96356.44
2022-12-25T21:39:36.957Z,96353.13
2022-12-25T21:42:05.603Z,96346.38
2022-12-25T21:44:35.340Z,96346.53
2022-12-25T21:47:03.658Z,96363.50
2022-12-25T21:49:49.495Z,96363.50
2022-12-25T21:52:17.945Z,96366.97
2022-12-25T21:54:46.492Z,96373.91
2022-12-25T21:57:14.905Z,96369.59
2022-12-25T21:59:44.617Z,96371.44
2022-12-25T22:02:13.166Z,96375.88
2022-12-25T22:04:41.755Z,96379.50
2022-12-25T22:07:18.078Z,96386.72
2022-12-25T22:09:47.293Z,96392.97
2022-12-25T22:12:34.819Z,96408.97
2022-12-25T22:15:07.375Z,96391.78
2022-12-25T22:17:54.964Z,96403.34
2022-12-25T22:20:25.363Z,96386.31
2022-12-25T22:22:54.232Z,96396.19
2022-12-25T22:25:23.441Z,96391.88
2022-12-25T22:27:52.614Z,96398.16
2022-12-25T22:30:24.868Z,96398.16
2022-12-25T22:32:53.431Z,96398.16
2022-12-25T22:35:22.383Z,96399.78
2022-12-25T22:37:51.304Z,96399.78
2022-12-25T22:40:20.973Z,96393.72
2022-12-25T22:42:49.365Z,96405.94
2022-12-25T22:45:18.131Z,96399.78
2022-12-25T22:47:47.871Z,96406.75
2022-12-25T22:50:16.246Z,96416.16
2022-12-25T22:52:45.844Z,96403.97
2022-12-25T22:55:17.791Z,96408.72
2022-12-25T22:57:46.376Z,96418.59
2022-12-25T23:00:15.086Z,96411.97
2022-12-25T23:02:43.590Z,96423.63
2022-12-25T23:05:13.476Z,96418.69
2022-12-25T23:07:41.929Z,96431.31
2022-12-25T23:10:11.728Z,96409.41
2022-12-25T23:12:57.561Z,96427.19
2022-12-25T23:15:27.594Z,96418.06
2022-12-25T23:18:13.687Z,96428.91
2022-12-25T23:21:01.055Z,96409.78
2022-12-25T23:23:46.877Z,96426.75
2022-12-25T23:26:17.555Z,96413.69
2022-12-25T23:29:03.481Z,96412.88
2022-12-25T23:31:34.828Z,96410.53
2022-12-25T23:34:03.419Z,96411.69
2022-12-25T23:36:33.299Z,96420.69
2022-12-25T23:39:09.033Z,96420.88
2022-12-25T23:41:39.108Z,96417.56
2022-12-25T23:44:07.856Z,96419.34
2022-12-25T23:46:36.674Z,96426.44
2022-12-25T23:49:05.472Z,96420.19
2022-12-25T23:51:36.530Z,96421.16
2022-12-25T23:54:05.507Z,96411.63
2022-12-25T23:56:34.024Z,96427.44
2022-12-25T23:59:02.448Z,96421.16
